sensor_id;sensor_type;location;lat;lon;timestamp;temperature;humidity
75824;DHT22;64457;51.976;9.834;2024-01-15T00:02:09;4.40;99.90
75824;DHT22;64457;51.976;9.834;2024-01-15T00:04:37;4.10;99.90
75824;DHT22;64457;51.976;9.834;2024-01-15T00:07:05;4.30;99.90
75824;DHT22;64457;51.976;9.834;2024-01-15T00:09:34;4.40;99.90
75824;DHT22;64457;51.976;9.834;2024-01-15T00:12:02;4.50;99.90
75824;DHT22;64457;51.976;9.834;2024-01-15T00:14:30;4.40;99.90
75824;DHT22;64457;51.976;9.834;2024-01-15T00:17:00;4.60;99.90
75824;DHT22;64457;51.976;9.834;2024-01-15T00:19:28;4.50;99.90
75824;DHT22;64457;51.976;9.834;2024-01-15T00:21:58;4.60;99.90
75824;DHT22;64457;51.976;9.834;2024-01-15T00:24:26;4.60;99.90
75824;DHT22;64457;51.976;9.834;2024-01-15T00:26:53;4.40;99.90
75824;DHT22;64457;51.976;9.834;2024-01-15T00:29:21;4.50;99.90
75824;DHT22;64457;51.976;9.834;2024-01-15T00:31:48;4.70;99.90
75824;DHT22;64457;51.976;9.834;2024-01-15T00:34:18;4.50;99.90
75824;DHT22;64457;51.976;9.834;2024-01-15T00:36:46;4.50;99.90
75824;DHT22;64457;51.976;9.834;2024-01-15T00:39:14;4.70;99.90
75824;DHT22;64457;51.976;9.834;2024-01-15T00:41:42;4.70;99.90
75824;DHT22;64457;51.976;9.834;2024-01-15T00:44:10;4.80;99.90
75824;DHT22;64457;51.976;9.834;2024-01-15T00:46:43;4.80;99.90
75824;DHT22;64457;51.976;9.834;2024-01-15T00:49:11;4.70;99.90
75824;DHT22;64457;51.976;9.834;2024-01-15T00:51:41;4.50;99.90
75824;DHT22;64457;51.976;9.834;2024-01-15T00:54:09;4.40;99.90
75824;DHT22;64457;51.976;9.834;2024-01-15T00:56:37;4.60;99.90
75824;DHT22;64457;51.976;9.834;2024-01-15T00:59:05;4.60;99.90
75824;DHT22;64457;51.976;9.834;2024-01-15T01:01:33;4.70;99.90
75824;DHT22;64457;51.976;9.834;2024-01-15T01:04:04;4.70;99.90
75824;DHT22;64457;51.976;9.834;2024-01-15T01:06:31;4.60;99.90
75824;DHT22;64457;51.976;9.834;2024-01-15T01:09:01;4.70;99.90
75824;DHT22;64457;51.976;9.834;2024-01-15T01:11:29;4.60;99.90
75824;DHT22;64457;51.976;9.834;2024-01-15T01:13:57;4.50;99.90
75824;DHT22;64457;51.976;9.834;2024-01-15T01:16:26;4.60;99.90
75824;DHT22;64457;51.976;9.834;2024-01-15T01:18:54;4.90;99.90
75824;DHT22;64457;51.976;9.834;2024-01-15T01:21:21;5.00;99.60
75824;DHT22;64457;51.976;9.834;2024-01-15T01:23:49;5.00;99.30
75824;DHT22;64457;51.976;9.834;2024-01-15T01:26:19;5.10;99.30
75824;DHT22;64457;51.976;9.834;2024-01-15T01:28:47;5.00;98.80
75824;DHT22;64457;51.976;9.834;2024-01-15T01:31:14;5.10;99.00
75824;DHT22;64457;51.976;9.834;2024-01-15T01:33:42;5.30;98.80
75824;DHT22;64457;51.976;9.834;2024-01-15T01:36:10;5.50;98.50
75824;DHT22;64457;51.976;9.834;2024-01-15T01:38:38;5.50;97.90
75824;DHT22;64457;51.976;9.834;2024-01-15T01:41:07;5.50;98.10
75824;DHT22;64457;51.976;9.834;2024-01-15T01:43:36;5.50;97.90
75824;DHT22;64457;51.976;9.834;2024-01-15T01:46:03;5.50;98.30
75824;DHT22;64457;51.976;9.834;2024-01-15T01:48:32;5.60;98.00
75824;DHT22;64457;51.976;9.834;2024-01-15T01:51:02;5.70;97.60
75824;DHT22;64457;51.976;9.834;2024-01-15T01:53:32;5.70;97.30
75824;DHT22;64457;51.976;9.834;2024-01-15T01:56:03;5.70;97.40
75824;DHT22;64457;51.976;9.834;2024-01-15T01:58:32;5.60;97.60
75824;DHT22;64457;51.976;9.834;2024-01-15T02:01:02;5.20;97.90
75824;DHT22;64457;51.976;9.834;2024-01-15T02:03:32;5.10;98.40
75824;DHT22;64457;51.976;9.834;2024-01-15T02:06:00;5.10;98.40
75824;DHT22;64457;51.976;9.834;2024-01-15T02:08:27;5.00;98.60
75824;DHT22;64457;51.976;9.834;2024-01-15T02:10:55;4.90;98.60
75824;DHT22;64457;51.976;9.834;2024-01-15T02:13:22;4.90;98.70
75824;DHT22;64457;51.976;9.834;2024-01-15T02:15:50;5.00;98.30
75824;DHT22;64457;51.976;9.834;2024-01-15T02:18:20;4.90;98.40
75824;DHT22;64457;51.976;9.834;2024-01-15T02:20:47;4.60;98.20
75824;DHT22;64457;51.976;9.834;2024-01-15T02:23:16;4.60;99.00
75824;DHT22;64457;51.976;9.834;2024-01-15T02:25:46;4.70;98.50
75824;DHT22;64457;51.976;9.834;2024-01-15T02:28:16;4.70;98.60
75824;DHT22;64457;51.976;9.834;2024-01-15T02:30:44;4.70;98.70
75824;DHT22;64457;51.976;9.834;2024-01-15T02:33:12;4.70;98.30
75824;DHT22;64457;51.976;9.834;2024-01-15T02:35:40;4.60;98.30
75824;DHT22;64457;51.976;9.834;2024-01-15T02:38:12;4.70;98.60
75824;DHT22;64457;51.976;9.834;2024-01-15T02:40:41;4.50;98.40
75824;DHT22;64457;51.976;9.834;2024-01-15T02:43:10;4.40;98.60
75824;DHT22;64457;51.976;9.834;2024-01-15T02:45:37;4.50;98.80
75824;DHT22;64457;51.976;9.834;2024-01-15T02:48:06;4.60;98.40
75824;DHT22;64457;51.976;9.834;2024-01-15T02:50:33;4.70;98.40
75824;DHT22;64457;51.976;9.834;2024-01-15T02:53:01;4.60;98.30
75824;DHT22;64457;51.976;9.834;2024-01-15T02:55:29;4.50;98.40
75824;DHT22;64457;51.976;9.834;2024-01-15T02:57:58;4.60;98.90
75824;DHT22;64457;51.976;9.834;2024-01-15T03:00:26;4.50;98.90
75824;DHT22;64457;51.976;9.834;2024-01-15T03:02:54;4.80;98.70
75824;DHT22;64457;51.976;9.834;2024-01-15T03:05:22;4.80;98.40
75824;DHT22;64457;51.976;9.834;2024-01-15T03:07:50;5.00;98.50
75824;DHT22;64457;51.976;9.834;2024-01-15T03:10:17;5.20;98.00
75824;DHT22;64457;51.976;9.834;2024-01-15T03:12:45;4.90;97.70
75824;DHT22;64457;51.976;9.834;2024-01-15T03:15:14;4.70;98.30
75824;DHT22;64457;51.976;9.834;2024-01-15T03:17:42;4.70;98.30
75824;DHT22;64457;51.976;9.834;2024-01-15T03:20:11;4.80;98.50
75824;DHT22;64457;51.976;9.834;2024-01-15T03:22:39;4.90;98.50
75824;DHT22;64457;51.976;9.834;2024-01-15T03:25:07;4.70;98.30
75824;DHT22;64457;51.976;9.834;2024-01-15T03:27:35;4.70;98.80
75824;DHT22;64457;51.976;9.834;2024-01-15T03:30:03;4.50;98.60
75824;DHT22;64457;51.976;9.834;2024-01-15T03:32:33;4.50;99.00
75824;DHT22;64457;51.976;9.834;2024-01-15T03:35:00;4.80;98.70
75824;DHT22;64457;51.976;9.834;2024-01-15T03:37:28;4.80;98.20
75824;DHT22;64457;51.976;9.834;2024-01-15T03:39:55;4.70;98.20
75824;DHT22;64457;51.976;9.834;2024-01-15T03:42:23;4.60;98.80
75824;DHT22;64457;51.976;9.834;2024-01-15T03:44:51;4.90;98.60
75824;DHT22;64457;51.976;9.834;2024-01-15T03:47:18;4.90;98.30
75824;DHT22;64457;51.976;9.834;2024-01-15T03:49:47;4.50;98.70
75824;DHT22;64457;51.976;9.834;2024-01-15T03:52:15;4.40;99.20
75824;DHT22;64457;51.976;9.834;2024-01-15T03:54:43;4.60;99.60
75824;DHT22;64457;51.976;9.834;2024-01-15T03:57:13;4.50;99.00
75824;DHT22;64457;51.976;9.834;2024-01-15T03:59:42;4.60;99.20
75824;DHT22;64457;51.976;9.834;2024-01-15T04:02:09;4.80;98.90
75824;DHT22;64457;51.976;9.834;2024-01-15T04:04:40;4.90;98.50
75824;DHT22;64457;51.976;9.834;2024-01-15T04:07:10;4.50;98.90
75824;DHT22;64457;51.976;9.834;2024-01-15T04:09:38;4.60;99.30
75824;DHT22;64457;51.976;9.834;2024-01-15T04:12:06;4.70;99.00
75824;DHT22;64457;51.976;9.834;2024-01-15T04:14:34;5.00;99.00
75824;DHT22;64457;51.976;9.834;2024-01-15T04:17:02;4.90;98.60
75824;DHT22;64457;51.976;9.834;2024-01-15T04:19:30;4.50;99.20
75824;DHT22;64457;51.976;9.834;2024-01-15T04:21:57;4.60;99.50
75824;DHT22;64457;51.976;9.834;2024-01-15T04:24:29;4.60;99.10
75824;DHT22;64457;51.976;9.834;2024-01-15T04:26:58;4.70;99.60
75824;DHT22;64457;51.976;9.834;2024-01-15T04:29:26;4.80;99.40
75824;DHT22;64457;51.976;9.834;2024-01-15T04:31:54;4.90;99.00
75824;DHT22;64457;51.976;9.834;2024-01-15T04:34:22;4.50;99.30
75824;DHT22;64457;51.976;9.834;2024-01-15T04:36:51;4.70;99.50
75824;DHT22;64457;51.976;9.834;2024-01-15T04:39:19;4.90;99.20
75824;DHT22;64457;51.976;9.834;2024-01-15T04:41:49;4.60;99.30
75824;DHT22;64457;51.976;9.834;2024-01-15T04:44:16;4.70;99.70
75824;DHT22;64457;51.976;9.834;2024-01-15T04:46:44;4.50;99.70
75824;DHT22;64457;51.976;9.834;2024-01-15T04:49:12;4.70;99.60
75824;DHT22;64457;51.976;9.834;2024-01-15T04:51:42;4.80;99.50
75824;DHT22;64457;51.976;9.834;2024-01-15T04:54:10;4.80;99.30
75824;DHT22;64457;51.976;9.834;2024-01-15T04:56:37;4.40;99.70
75824;DHT22;64457;51.976;9.834;2024-01-15T04:59:06;4.00;99.90
75824;DHT22;64457;51.976;9.834;2024-01-15T05:01:34;4.20;99.90
75824;DHT22;64457;51.976;9.834;2024-01-15T05:04:03;4.10;99.90
75824;DHT22;64457;51.976;9.834;2024-01-15T05:06:32;4.20;99.90
75824;DHT22;64457;51.976;9.834;2024-01-15T05:08:58;4.50;99.90
75824;DHT22;64457;51.976;9.834;2024-01-15T05:11:26;4.60;99.90
75824;DHT22;64457;51.976;9.834;2024-01-15T05:13:54;4.80;99.90
75824;DHT22;64457;51.976;9.834;2024-01-15T05:16:23;4.50;99.90
75824;DHT22;64457;51.976;9.834;2024-01-15T05:18:51;4.30;99.90
75824;DHT22;64457;51.976;9.834;2024-01-15T05:21:18;4.40;99.90
75824;DHT22;64457;51.976;9.834;2024-01-15T05:23:46;4.60;99.90
75824;DHT22;64457;51.976;9.834;2024-01-15T05:26:15;4.60;99.90
75824;DHT22;64457;51.976;9.834;2024-01-15T05:28:44;4.70;99.90
75824;DHT22;64457;51.976;9.834;2024-01-15T05:31:12;4.90;99.90
75824;DHT22;64457;51.976;9.834;2024-01-15T05:33:41;5.10;99.90
75824;DHT22;64457;51.976;9.834;2024-01-15T05:36:09;5.30;99.60
75824;DHT22;64457;51.976;9.834;2024-01-15T05:38:37;5.40;99.30
75824;DHT22;64457;51.976;9.834;2024-01-15T05:41:05;5.30;99.30
75824;DHT22;64457;51.976;9.834;2024-01-15T05:43:33;4.80;99.90
75824;DHT22;64457;51.976;9.834;2024-01-15T05:46:01;4.60;99.90
75824;DHT22;64457;51.976;9.834;2024-01-15T05:48:29;4.60;99.90
75824;DHT22;64457;51.976;9.834;2024-01-15T05:50:58;4.70;99.90
75824;DHT22;64457;51.976;9.834;2024-01-15T05:53:26;4.70;99.90
75824;DHT22;64457;51.976;9.834;2024-01-15T05:55:57;4.80;99.90
75824;DHT22;64457;51.976;9.834;2024-01-15T05:58:27;4.80;99.90
75824;DHT22;64457;51.976;9.834;2024-01-15T06:00:54;5.10;99.90
75824;DHT22;64457;51.976;9.834;2024-01-15T06:03:22;4.80;99.60
75824;DHT22;64457;51.976;9.834;2024-01-15T06:05:50;4.60;99.90
75824;DHT22;64457;51.976;9.834;2024-01-15T06:08:19;4.40;99.90
75824;DHT22;64457;51.976;9.834;2024-01-15T06:10:47;4.70;99.90
75824;DHT22;64457;51.976;9.834;2024-01-15T06:13:15;4.70;99.90
75824;DHT22;64457;51.976;9.834;2024-01-15T06:15:43;4.80;99.90
75824;DHT22;64457;51.976;9.834;2024-01-15T06:18:11;4.90;99.90
75824;DHT22;64457;51.976;9.834;2024-01-15T06:20:39;5.10;99.60
75824;DHT22;64457;51.976;9.834;2024-01-15T06:23:06;4.90;99.90
75824;DHT22;64457;51.976;9.834;2024-01-15T06:25:36;4.80;99.90
75824;DHT22;64457;51.976;9.834;2024-01-15T06:28:04;4.80;99.90
75824;DHT22;64457;51.976;9.834;2024-01-15T06:30:31;5.00;99.90
75824;DHT22;64457;51.976;9.834;2024-01-15T06:32:59;4.80;99.90
75824;DHT22;64457;51.976;9.834;2024-01-15T06:35:27;4.70;99.90
75824;DHT22;64457;51.976;9.834;2024-01-15T06:37:55;4.80;99.90
75824;DHT22;64457;51.976;9.834;2024-01-15T06:40:22;4.80;99.90
75824;DHT22;64457;51.976;9.834;2024-01-15T06:42:52;4.90;99.90
75824;DHT22;64457;51.976;9.834;2024-01-15T06:45:19;5.00;99.90
75824;DHT22;64457;51.976;9.834;2024-01-15T06:47:47;4.70;99.90
75824;DHT22;64457;51.976;9.834;2024-01-15T06:50:15;4.90;99.90
75824;DHT22;64457;51.976;9.834;2024-01-15T06:52:43;4.90;99.90
75824;DHT22;64457;51.976;9.834;2024-01-15T06:55:11;4.80;99.90
75824;DHT22;64457;51.976;9.834;2024-01-15T06:57:38;4.80;99.90
75824;DHT22;64457;51.976;9.834;2024-01-15T07:00:10;5.00;99.90
75824;DHT22;64457;51.976;9.834;2024-01-15T07:02:38;5.10;99.60
75824;DHT22;64457;51.976;9.834;2024-01-15T07:05:06;4.90;99.90
75824;DHT22;64457;51.976;9.834;2024-01-15T07:07:34;4.80;99.90
75824;DHT22;64457;51.976;9.834;2024-01-15T07:10:02;4.60;99.90
75824;DHT22;64457;51.976;9.834;2024-01-15T07:12:31;4.70;99.90
75824;DHT22;64457;51.976;9.834;2024-01-15T07:14:59;4.80;99.90
75824;DHT22;64457;51.976;9.834;2024-01-15T07:17:29;4.60;99.90
75824;DHT22;64457;51.976;9.834;2024-01-15T07:19:56;4.70;99.90
75824;DHT22;64457;51.976;9.834;2024-01-15T07:22:25;4.80;99.90
75824;DHT22;64457;51.976;9.834;2024-01-15T07:24:54;4.70;99.90
75824;DHT22;64457;51.976;9.834;2024-01-15T07:27:22;4.60;99.90
75824;DHT22;64457;51.976;9.834;2024-01-15T07:29:50;4.40;99.90
75824;DHT22;64457;51.976;9.834;2024-01-15T07:32:19;4.30;99.90
75824;DHT22;64457;51.976;9.834;2024-01-15T07:34:49;4.50;99.90
75824;DHT22;64457;51.976;9.834;2024-01-15T07:37:17;4.60;99.90
75824;DHT22;64457;51.976;9.834;2024-01-15T07:39:44;4.30;99.90
75824;DHT22;64457;51.976;9.834;2024-01-15T07:42:13;4.10;99.90
75824;DHT22;64457;51.976;9.834;2024-01-15T07:44:40;4.20;99.90
75824;DHT22;64457;51.976;9.834;2024-01-15T07:47:08;4.50;99.90
75824;DHT22;64457;51.976;9.834;2024-01-15T07:49:36;4.60;99.90
75824;DHT22;64457;51.976;9.834;2024-01-15T07:52:06;4.70;99.90
75824;DHT22;64457;51.976;9.834;2024-01-15T07:54:34;4.70;99.90
75824;DHT22;64457;51.976;9.834;2024-01-15T07:57:03;4.80;99.90
75824;DHT22;64457;51.976;9.834;2024-01-15T07:59:31;4.80;99.90
75824;DHT22;64457;51.976;9.834;2024-01-15T08:01:59;4.80;99.90
75824;DHT22;64457;51.976;9.834;2024-01-15T08:04:28;4.60;99.90
75824;DHT22;64457;51.976;9.834;2024-01-15T08:06:55;4.80;99.90
75824;DHT22;64457;51.976;9.834;2024-01-15T08:09:25;5.00;99.90
75824;DHT22;64457;51.976;9.834;2024-01-15T08:11:53;5.10;99.60
75824;DHT22;64457;51.976;9.834;2024-01-15T08:14:20;5.10;99.60
75824;DHT22;64457;51.976;9.834;2024-01-15T08:16:48;5.00;99.60
75824;DHT22;64457;51.976;9.834;2024-01-15T08:19:16;4.80;99.80
75824;DHT22;64457;51.976;9.834;2024-01-15T08:21:45;4.50;99.90
75824;DHT22;64457;51.976;9.834;2024-01-15T08:24:15;4.80;99.90
75824;DHT22;64457;51.976;9.834;2024-01-15T08:26:45;4.40;99.90
75824;DHT22;64457;51.976;9.834;2024-01-15T08:29:13;4.50;99.90
75824;DHT22;64457;51.976;9.834;2024-01-15T08:31:41;4.40;99.90
75824;DHT22;64457;51.976;9.834;2024-01-15T08:34:09;4.70;99.90
75824;DHT22;64457;51.976;9.834;2024-01-15T08:36:37;4.50;99.90
75824;DHT22;64457;51.976;9.834;2024-01-15T08:39:06;4.80;99.90
75824;DHT22;64457;51.976;9.834;2024-01-15T08:41:34;5.00;99.90
75824;DHT22;64457;51.976;9.834;2024-01-15T08:44:05;5.00;99.70
75824;DHT22;64457;51.976;9.834;2024-01-15T08:46:32;4.80;99.70
75824;DHT22;64457;51.976;9.834;2024-01-15T08:49:00;4.90;99.90
75824;DHT22;64457;51.976;9.834;2024-01-15T08:51:29;5.20;99.80
75824;DHT22;64457;51.976;9.834;2024-01-15T08:53:56;5.30;99.10
75824;DHT22;64457;51.976;9.834;2024-01-15T08:56:25;5.20;99.00
75824;DHT22;64457;51.976;9.834;2024-01-15T08:58:54;5.10;99.30
75824;DHT22;64457;51.976;9.834;2024-01-15T09:01:23;5.20;98.90
75824;DHT22;64457;51.976;9.834;2024-01-15T09:03:51;5.20;99.60
75824;DHT22;64457;51.976;9.834;2024-01-15T09:06:19;5.20;99.10
75824;DHT22;64457;51.976;9.834;2024-01-15T09:08:47;5.10;99.10
75824;DHT22;64457;51.976;9.834;2024-01-15T09:11:15;5.30;99.10
75824;DHT22;64457;51.976;9.834;2024-01-15T09:13:43;5.60;98.90
75824;DHT22;64457;51.976;9.834;2024-01-15T09:16:11;5.60;98.10
75824;DHT22;64457;51.976;9.834;2024-01-15T09:18:41;5.80;98.00
75824;DHT22;64457;51.976;9.834;2024-01-15T09:21:08;5.90;97.90
75824;DHT22;64457;51.976;9.834;2024-01-15T09:23:36;6.00;97.80
75824;DHT22;64457;51.976;9.834;2024-01-15T09:26:04;5.60;98.00
75824;DHT22;64457;51.976;9.834;2024-01-15T09:28:32;5.60;98.30
75824;DHT22;64457;51.976;9.834;2024-01-15T09:31:00;5.60;97.90
75824;DHT22;64457;51.976;9.834;2024-01-15T09:33:28;5.30;98.70
75824;DHT22;64457;51.976;9.834;2024-01-15T09:35:57;5.30;98.80
75824;DHT22;64457;51.976;9.834;2024-01-15T09:38:24;5.60;98.40
75824;DHT22;64457;51.976;9.834;2024-01-15T09:40:52;5.60;98.30
75824;DHT22;64457;51.976;9.834;2024-01-15T09:43:20;5.80;98.10
75824;DHT22;64457;51.976;9.834;2024-01-15T09:45:50;5.50;98.50
75824;DHT22;64457;51.976;9.834;2024-01-15T09:48:17;5.40;98.50
75824;DHT22;64457;51.976;9.834;2024-01-15T09:50:45;5.50;98.40
75824;DHT22;64457;51.976;9.834;2024-01-15T09:53:15;5.70;98.30
75824;DHT22;64457;51.976;9.834;2024-01-15T09:55:43;5.40;98.00
75824;DHT22;64457;51.976;9.834;2024-01-15T09:58:11;5.60;98.20
75824;DHT22;64457;51.976;9.834;2024-01-15T10:00:42;5.20;98.40
75824;DHT22;64457;51.976;9.834;2024-01-15T10:03:11;5.40;98.40
75824;DHT22;64457;51.976;9.834;2024-01-15T10:05:41;5.70;98.40
75824;DHT22;64457;51.976;9.834;2024-01-15T10:08:09;6.00;97.80
75824;DHT22;64457;51.976;9.834;2024-01-15T10:10:40;6.10;97.70
75824;DHT22;64457;51.976;9.834;2024-01-15T10:13:08;6.10;97.30
75824;DHT22;64457;51.976;9.834;2024-01-15T10:15:37;5.90;97.40
75824;DHT22;64457;51.976;9.834;2024-01-15T10:18:05;6.00;97.70
75824;DHT22;64457;51.976;9.834;2024-01-15T10:20:33;5.70;97.20
75824;DHT22;64457;51.976;9.834;2024-01-15T10:23:01;5.40;98.30
75824;DHT22;64457;51.976;9.834;2024-01-15T10:25:29;5.40;98.20
75824;DHT22;64457;51.976;9.834;2024-01-15T10:28:03;5.70;98.00
75824;DHT22;64457;51.976;9.834;2024-01-15T10:30:32;6.00;97.50
75824;DHT22;64457;51.976;9.834;2024-01-15T10:33:03;6.20;96.70
75824;DHT22;64457;51.976;9.834;2024-01-15T10:35:32;5.90;96.60
75824;DHT22;64457;51.976;9.834;2024-01-15T10:38:01;5.90;97.50
75824;DHT22;64457;51.976;9.834;2024-01-15T10:40:29;5.70;97.40
75824;DHT22;64457;51.976;9.834;2024-01-15T10:42:57;5.50;97.50
75824;DHT22;64457;51.976;9.834;2024-01-15T10:45:26;5.50;97.50
75824;DHT22;64457;51.976;9.834;2024-01-15T10:47:54;5.40;97.70
75824;DHT22;64457;51.976;9.834;2024-01-15T10:50:24;5.80;97.90
75824;DHT22;64457;51.976;9.834;2024-01-15T10:52:52;6.10;97.20
75824;DHT22;64457;51.976;9.834;2024-01-15T10:55:21;6.30;96.60
75824;DHT22;64457;51.976;9.834;2024-01-15T10:57:50;6.20;96.60
75824;DHT22;64457;51.976;9.834;2024-01-15T11:00:18;6.00;96.80
75824;DHT22;64457;51.976;9.834;2024-01-15T11:02:47;5.50;97.10
75824;DHT22;64457;51.976;9.834;2024-01-15T11:05:15;5.40;97.40
75824;DHT22;64457;51.976;9.834;2024-01-15T11:07:44;5.20;98.00
75824;DHT22;64457;51.976;9.834;2024-01-15T11:10:40;5.20;98.30
75824;DHT22;64457;51.976;9.834;2024-01-15T11:13:09;5.00;97.60
75824;DHT22;64457;51.976;9.834;2024-01-15T11:16:00;5.00;98.30
75824;DHT22;64457;51.976;9.834;2024-01-15T11:18:32;4.90;98.50
75824;DHT22;64457;51.976;9.834;2024-01-15T11:21:20;5.30;98.10
75824;DHT22;64457;51.976;9.834;2024-01-15T11:23:50;5.60;97.20
75824;DHT22;64457;51.976;9.834;2024-01-15T11:26:29;5.60;96.70
75824;DHT22;64457;51.976;9.834;2024-01-15T11:29:04;5.60;96.80
75824;DHT22;64457;51.976;9.834;2024-01-15T11:32:03;5.40;97.10
75824;DHT22;64457;51.976;9.834;2024-01-15T11:34:53;5.60;97.40
75824;DHT22;64457;51.976;9.834;2024-01-15T11:37:25;5.50;97.30
75824;DHT22;64457;51.976;9.834;2024-01-15T11:39:54;5.60;96.80
75824;DHT22;64457;51.976;9.834;2024-01-15T11:42:22;5.80;97.10
75824;DHT22;64457;51.976;9.834;2024-01-15T11:44:50;6.00;96.20
75824;DHT22;64457;51.976;9.834;2024-01-15T11:47:45;5.80;96.20
75824;DHT22;64457;51.976;9.834;2024-01-15T11:50:31;5.90;96.70
75824;DHT22;64457;51.976;9.834;2024-01-15T11:53:00;5.80;96.60
75824;DHT22;64457;51.976;9.834;2024-01-15T11:55:33;5.80;96.70
75824;DHT22;64457;51.976;9.834;2024-01-15T11:58:08;5.50;96.50
75824;DHT22;64457;51.976;9.834;2024-01-15T12:00:39;5.50;96.90
75824;DHT22;64457;51.976;9.834;2024-01-15T12:03:08;5.80;96.90
75824;DHT22;64457;51.976;9.834;2024-01-15T12:05:39;6.10;96.20
75824;DHT22;64457;51.976;9.834;2024-01-15T12:08:07;6.20;95.90
75824;DHT22;64457;51.976;9.834;2024-01-15T12:10:38;5.70;95.80
75824;DHT22;64457;51.976;9.834;2024-01-15T12:13:10;5.70;96.30
75824;DHT22;64457;51.976;9.834;2024-01-15T12:15:39;5.90;95.60
75824;DHT22;64457;51.976;9.834;2024-01-15T12:18:09;5.30;96.00
75824;DHT22;64457;51.976;9.834;2024-01-15T12:20:40;5.00;96.80
75824;DHT22;64457;51.976;9.834;2024-01-15T12:23:08;5.40;96.70
75824;DHT22;64457;51.976;9.834;2024-01-15T12:25:37;5.80;96.10
75824;DHT22;64457;51.976;9.834;2024-01-15T12:28:05;6.20;95.80
75824;DHT22;64457;51.976;9.834;2024-01-15T12:30:34;6.20;95.20
75824;DHT22;64457;51.976;9.834;2024-01-15T12:33:06;6.10;94.60
75824;DHT22;64457;51.976;9.834;2024-01-15T12:35:34;5.80;95.30
75824;DHT22;64457;51.976;9.834;2024-01-15T12:38:03;6.10;95.50
75824;DHT22;64457;51.976;9.834;2024-01-15T12:40:32;6.30;95.20
75824;DHT22;64457;51.976;9.834;2024-01-15T12:43:01;6.30;94.70
75824;DHT22;64457;51.976;9.834;2024-01-15T12:45:29;6.20;94.90
75824;DHT22;64457;51.976;9.834;2024-01-15T12:47:58;6.00;95.00
75824;DHT22;64457;51.976;9.834;2024-01-15T12:50:26;5.80;94.90
75824;DHT22;64457;51.976;9.834;2024-01-15T12:52:54;5.60;95.90
75824;DHT22;64457;51.976;9.834;2024-01-15T12:55:23;5.60;95.80
75824;DHT22;64457;51.976;9.834;2024-01-15T12:57:50;5.60;96.10
75824;DHT22;64457;51.976;9.834;2024-01-15T13:00:20;5.20;96.20
75824;DHT22;64457;51.976;9.834;2024-01-15T13:02:48;5.50;96.80
75824;DHT22;64457;51.976;9.834;2024-01-15T13:05:16;6.00;95.70
75824;DHT22;64457;51.976;9.834;2024-01-15T13:07:44;6.10;95.70
75824;DHT22;64457;51.976;9.834;2024-01-15T13:10:12;6.40;95.10
75824;DHT22;64457;51.976;9.834;2024-01-15T13:12:42;6.60;94.70
75824;DHT22;64457;51.976;9.834;2024-01-15T13:15:09;6.40;93.80
75824;DHT22;64457;51.976;9.834;2024-01-15T13:17:37;6.10;95.00
75824;DHT22;64457;51.976;9.834;2024-01-15T13:20:07;6.00;94.70
75824;DHT22;64457;51.976;9.834;2024-01-15T13:22:36;6.10;95.20
75824;DHT22;64457;51.976;9.834;2024-01-15T13:25:06;6.00;94.90
75824;DHT22;64457;51.976;9.834;2024-01-15T13:27:34;5.40;95.80
75824;DHT22;64457;51.976;9.834;2024-01-15T13:30:05;5.50;95.90
75824;DHT22;64457;51.976;9.834;2024-01-15T13:32:33;5.70;96.00
75824;DHT22;64457;51.976;9.834;2024-01-15T13:35:03;6.00;95.60
75824;DHT22;64457;51.976;9.834;2024-01-15T13:37:35;6.20;95.30
75824;DHT22;64457;51.976;9.834;2024-01-15T13:40:04;6.30;94.50
75824;DHT22;64457;51.976;9.834;2024-01-15T13:42:35;6.20;94.60
75824;DHT22;64457;51.976;9.834;2024-01-15T13:45:06;6.20;95.30
75824;DHT22;64457;51.976;9.834;2024-01-15T13:47:34;6.20;94.80
75824;DHT22;64457;51.976;9.834;2024-01-15T13:50:03;6.10;94.90
75824;DHT22;64457;51.976;9.834;2024-01-15T13:52:31;6.00;94.90
75824;DHT22;64457;51.976;9.834;2024-01-15T13:54:59;5.80;95.60
75824;DHT22;64457;51.976;9.834;2024-01-15T13:57:28;5.80;95.70
75824;DHT22;64457;51.976;9.834;2024-01-15T13:59:56;5.50;95.40
75824;DHT22;64457;51.976;9.834;2024-01-15T14:02:25;5.20;96.30
75824;DHT22;64457;51.976;9.834;2024-01-15T14:04:53;5.30;96.50
75824;DHT22;64457;51.976;9.834;2024-01-15T14:07:21;5.40;96.10
75824;DHT22;64457;51.976;9.834;2024-01-15T14:09:48;5.70;96.30
75824;DHT22;64457;51.976;9.834;2024-01-15T14:12:16;5.90;95.60
75824;DHT22;64457;51.976;9.834;2024-01-15T14:14:43;5.80;95.30
75824;DHT22;64457;51.976;9.834;2024-01-15T14:17:11;5.40;95.50
75824;DHT22;64457;51.976;9.834;2024-01-15T14:19:40;5.50;95.80
75824;DHT22;64457;51.976;9.834;2024-01-15T14:22:08;5.30;96.10
75824;DHT22;64457;51.976;9.834;2024-01-15T14:24:36;5.30;96.30
75824;DHT22;64457;51.976;9.834;2024-01-15T14:27:04;5.10;96.60
75824;DHT22;64457;51.976;9.834;2024-01-15T14:29:33;5.40;96.40
75824;DHT22;64457;51.976;9.834;2024-01-15T14:32:01;5.60;96.00
75824;DHT22;64457;51.976;9.834;2024-01-15T14:34:29;5.60;96.00
75824;DHT22;64457;51.976;9.834;2024-01-15T14:36:58;5.70;96.00
75824;DHT22;64457;51.976;9.834;2024-01-15T14:39:26;5.60;96.10
75824;DHT22;64457;51.976;9.834;2024-01-15T14:41:53;5.40;96.30
75824;DHT22;64457;51.976;9.834;2024-01-15T14:44:22;5.30;96.80
75824;DHT22;64457;51.976;9.834;2024-01-15T14:46:50;5.30;96.50
75824;DHT22;64457;51.976;9.834;2024-01-15T14:49:18;5.40;96.40
75824;DHT22;64457;51.976;9.834;2024-01-15T14:51:46;5.50;96.40
75824;DHT22;64457;51.976;9.834;2024-01-15T14:54:16;5.40;96.10
75824;DHT22;64457;51.976;9.834;2024-01-15T14:56:44;5.30;96.70
75824;DHT22;64457;51.976;9.834;2024-01-15T14:59:12;5.50;96.70
75824;DHT22;64457;51.976;9.834;2024-01-15T15:01:40;5.30;96.70
75824;DHT22;64457;51.976;9.834;2024-01-15T15:04:08;5.30;97.00
75824;DHT22;64457;51.976;9.834;2024-01-15T15:06:36;4.90;98.10
75824;DHT22;64457;51.976;9.834;2024-01-15T15:09:04;5.10;98.50
75824;DHT22;64457;51.976;9.834;2024-01-15T15:11:37;5.30;98.20
75824;DHT22;64457;51.976;9.834;2024-01-15T15:14:05;5.40;98.10
75824;DHT22;64457;51.976;9.834;2024-01-15T15:16:33;5.10;98.40
75824;DHT22;64457;51.976;9.834;2024-01-15T15:19:00;5.10;99.10
75824;DHT22;64457;51.976;9.834;2024-01-15T15:21:28;5.30;98.90
75824;DHT22;64457;51.976;9.834;2024-01-15T15:23:55;5.10;99.30
75824;DHT22;64457;51.976;9.834;2024-01-15T15:26:23;5.20;99.30
75824;DHT22;64457;51.976;9.834;2024-01-15T15:28:52;5.40;98.90
75824;DHT22;64457;51.976;9.834;2024-01-15T15:31:20;5.50;98.70
75824;DHT22;64457;51.976;9.834;2024-01-15T15:33:47;5.60;98.10
75824;DHT22;64457;51.976;9.834;2024-01-15T15:36:15;5.30;98.00
75824;DHT22;64457;51.976;9.834;2024-01-15T15:38:44;4.90;99.10
75824;DHT22;64457;51.976;9.834;2024-01-15T15:41:12;5.00;99.30
75824;DHT22;64457;51.976;9.834;2024-01-15T15:43:40;5.20;98.90
75824;DHT22;64457;51.976;9.834;2024-01-15T15:46:09;5.40;98.50
75824;DHT22;64457;51.976;9.834;2024-01-15T15:48:37;5.70;98.30
75824;DHT22;64457;51.976;9.834;2024-01-15T15:51:05;5.60;98.30
75824;DHT22;64457;51.976;9.834;2024-01-15T15:53:33;5.60;98.30
75824;DHT22;64457;51.976;9.834;2024-01-15T15:56:00;5.00;99.40